Portada
METAR-TAF:

METAR-TAF

Aeroports :

Riberalta, Bolívia

latitud: 11-00S, longitud: 066-07W, altitud: 141 m

Observació

L'informe es va fer fa 9 hores i 16 minuts, a les 22:00 UTC
Vent 4 kt del Nord-Est
Temperatura 26°C
Humitat 94%
Pressió 1007 hPa
Visibilitat: 8000 m
Núvols disperses a una alçada de 1500 ft
Escasses núvols a una alçada de 2000 ft, Cumulonimbus.
Cel ennuvolat a una alçada de 7000 ft
xàfecs en les proximitats,

METAR: SLRI 212200Z 05004KT 8000 VCSH SCT015 FEW020CB BKN070 26/25 Q1007

Hora: 03:16 (07:16 UTC)


TAF: manca

Observacions i pronòstics meteorològics de més de 4000 aeroports (METAR i TAF).

Les estacions disponibles són els punts grocs i vermells al mapa.

Posi el ratolí al punt desitjat per veure el nom de l'estació.

Feu clic per veure les observacions i els pronòstics meteorològics.

Per canviar el mapa: feu clic els botons verds amb una creu de color negre per apropar; al botó verd amb un guió per allunyar la imatge; o en les fletxes verdes per a mapes adjacents.


METAR-TAF: